sensor_id;sensor_type;location;lat;lon;timestamp;P1;durP1;ratioP1;P2;durP2;ratioP2
2850;SDS011;1433;49.976;8.342;2022-12-07T00:01:28;17.27;;;12.13;;
2850;SDS011;1433;49.976;8.342;2022-12-07T00:03:58;21.10;;;12.90;;
2850;SDS011;1433;49.976;8.342;2022-12-07T00:06:35;20.30;;;13.50;;
2850;SDS011;1433;49.976;8.342;2022-12-07T00:09:06;13.93;;;11.03;;
2850;SDS011;1433;49.976;8.342;2022-12-07T00:11:36;22.30;;;13.17;;
2850;SDS011;1433;49.976;8.342;2022-12-07T00:14:06;16.43;;;11.57;;
2850;SDS011;1433;49.976;8.342;2022-12-07T00:16:36;16.73;;;12.17;;
2850;SDS011;1433;49.976;8.342;2022-12-07T00:19:03;15.60;;;12.90;;
2850;SDS011;1433;49.976;8.342;2022-12-07T00:21:33;12.40;;;10.63;;
2850;SDS011;1433;49.976;8.342;2022-12-07T00:24:01;13.50;;;11.17;;
2850;SDS011;1433;49.976;8.342;2022-12-07T00:26:30;12.07;;;10.53;;
2850;SDS011;1433;49.976;8.342;2022-12-07T00:29:01;15.27;;;10.97;;
2850;SDS011;1433;49.976;8.342;2022-12-07T00:31:32;11.07;;;9.90;;
2850;SDS011;1433;49.976;8.342;2022-12-07T00:34:03;15.83;;;10.73;;
2850;SDS011;1433;49.976;8.342;2022-12-07T00:36:29;10.77;;;9.67;;
2850;SDS011;1433;49.976;8.342;2022-12-07T00:38:57;14.27;;;12.40;;
2850;SDS011;1433;49.976;8.342;2022-12-07T00:41:25;19.40;;;12.50;;
2850;SDS011;1433;49.976;8.342;2022-12-07T00:43:53;12.47;;;10.93;;
2850;SDS011;1433;49.976;8.342;2022-12-07T00:46:20;12.43;;;10.67;;
2850;SDS011;1433;49.976;8.342;2022-12-07T00:48:47;12.90;;;11.00;;
2850;SDS011;1433;49.976;8.342;2022-12-07T00:51:15;17.60;;;12.87;;
2850;SDS011;1433;49.976;8.342;2022-12-07T00:53:44;13.50;;;10.80;;
2850;SDS011;1433;49.976;8.342;2022-12-07T00:56:12;13.50;;;11.10;;
2850;SDS011;1433;49.976;8.342;2022-12-07T00:58:41;14.03;;;11.60;;
2850;SDS011;1433;49.976;8.342;2022-12-07T01:01:09;11.13;;;9.83;;
2850;SDS011;1433;49.976;8.342;2022-12-07T01:03:36;14.90;;;10.53;;
2850;SDS011;1433;49.976;8.342;2022-12-07T01:06:03;12.40;;;10.57;;
2850;SDS011;1433;49.976;8.342;2022-12-07T01:08:31;8.43;;;7.73;;
2850;SDS011;1433;49.976;8.342;2022-12-07T01:11:02;13.57;;;10.13;;
2850;SDS011;1433;49.976;8.342;2022-12-07T01:13:31;14.37;;;9.60;;
2850;SDS011;1433;49.976;8.342;2022-12-07T01:16:02;12.03;;;8.97;;
2850;SDS011;1433;49.976;8.342;2022-12-07T01:18:32;10.73;;;8.90;;
2850;SDS011;1433;49.976;8.342;2022-12-07T01:21:01;14.00;;;11.23;;
2850;SDS011;1433;49.976;8.342;2022-12-07T01:23:34;13.57;;;10.23;;
2850;SDS011;1433;49.976;8.342;2022-12-07T01:26:03;12.87;;;10.23;;
2850;SDS011;1433;49.976;8.342;2022-12-07T01:28:32;11.37;;;9.87;;
2850;SDS011;1433;49.976;8.342;2022-12-07T01:31:07;12.53;;;11.03;;
2850;SDS011;1433;49.976;8.342;2022-12-07T01:33:47;12.03;;;10.80;;
2850;SDS011;1433;49.976;8.342;2022-12-07T01:38:50;13.80;;;9.20;;
2850;SDS011;1433;49.976;8.342;2022-12-07T01:41:18;10.33;;;8.43;;
2850;SDS011;1433;49.976;8.342;2022-12-07T01:46:52;13.20;;;9.97;;
2850;SDS011;1433;49.976;8.342;2022-12-07T01:52:13;11.13;;;8.97;;
2850;SDS011;1433;49.976;8.342;2022-12-07T01:54:43;10.77;;;8.87;;
2850;SDS011;1433;49.976;8.342;2022-12-07T01:57:12;11.47;;;9.23;;
2850;SDS011;1433;49.976;8.342;2022-12-07T01:59:41;15.83;;;11.20;;
2850;SDS011;1433;49.976;8.342;2022-12-07T02:02:12;9.50;;;8.63;;
2850;SDS011;1433;49.976;8.342;2022-12-07T02:04:41;8.93;;;8.03;;
2850;SDS011;1433;49.976;8.342;2022-12-07T02:07:08;12.63;;;10.60;;
2850;SDS011;1433;49.976;8.342;2022-12-07T02:09:35;10.73;;;8.30;;
2850;SDS011;1433;49.976;8.342;2022-12-07T02:12:01;11.63;;;9.20;;
2850;SDS011;1433;49.976;8.342;2022-12-07T02:14:28;9.63;;;8.43;;
2850;SDS011;1433;49.976;8.342;2022-12-07T02:23:00;12.37;;;9.40;;
2850;SDS011;1433;49.976;8.342;2022-12-07T02:31:49;10.30;;;9.23;;
2850;SDS011;1433;49.976;8.342;2022-12-07T02:34:24;13.07;;;10.40;;
2850;SDS011;1433;49.976;8.342;2022-12-07T02:36:54;12.43;;;11.00;;
2850;SDS011;1433;49.976;8.342;2022-12-07T02:39:31;11.70;;;9.77;;
2850;SDS011;1433;49.976;8.342;2022-12-07T02:42:02;14.20;;;10.13;;
2850;SDS011;1433;49.976;8.342;2022-12-07T02:44:35;10.90;;;9.90;;
2850;SDS011;1433;49.976;8.342;2022-12-07T02:47:03;10.67;;;9.40;;
2850;SDS011;1433;49.976;8.342;2022-12-07T02:49:33;12.07;;;10.63;;
2850;SDS011;1433;49.976;8.342;2022-12-07T02:52:02;10.57;;;9.57;;
2850;SDS011;1433;49.976;8.342;2022-12-07T02:54:29;12.63;;;10.20;;
2850;SDS011;1433;49.976;8.342;2022-12-07T03:11:29;10.10;;;9.13;;
2850;SDS011;1433;49.976;8.342;2022-12-07T03:14:45;12.03;;;9.57;;
2850;SDS011;1433;49.976;8.342;2022-12-07T03:17:20;9.70;;;8.73;;
2850;SDS011;1433;49.976;8.342;2022-12-07T03:19:50;10.43;;;9.30;;
2850;SDS011;1433;49.976;8.342;2022-12-07T03:22:21;13.17;;;10.80;;
2850;SDS011;1433;49.976;8.342;2022-12-07T03:24:57;9.90;;;8.83;;
2850;SDS011;1433;49.976;8.342;2022-12-07T03:27:32;10.53;;;9.57;;
2850;SDS011;1433;49.976;8.342;2022-12-07T03:30:19;10.60;;;9.33;;
2850;SDS011;1433;49.976;8.342;2022-12-07T03:35:43;10.43;;;8.80;;
2850;SDS011;1433;49.976;8.342;2022-12-07T03:38:34;13.67;;;8.70;;
2850;SDS011;1433;49.976;8.342;2022-12-07T03:41:18;12.33;;;10.10;;
2850;SDS011;1433;49.976;8.342;2022-12-07T03:43:48;8.53;;;7.77;;
2850;SDS011;1433;49.976;8.342;2022-12-07T03:52:02;8.93;;;8.00;;
2850;SDS011;1433;49.976;8.342;2022-12-07T03:54:45;9.23;;;8.30;;
2850;SDS011;1433;49.976;8.342;2022-12-07T03:57:24;9.23;;;8.33;;
2850;SDS011;1433;49.976;8.342;2022-12-07T03:59:53;9.47;;;7.90;;
2850;SDS011;1433;49.976;8.342;2022-12-07T04:02:21;8.83;;;7.73;;
2850;SDS011;1433;49.976;8.342;2022-12-07T04:04:49;11.07;;;8.07;;
2850;SDS011;1433;49.976;8.342;2022-12-07T04:07:16;11.20;;;9.30;;
2850;SDS011;1433;49.976;8.342;2022-12-07T04:09:42;9.03;;;8.13;;
2850;SDS011;1433;49.976;8.342;2022-12-07T04:12:08;16.97;;;9.53;;
2850;SDS011;1433;49.976;8.342;2022-12-07T04:14:35;9.50;;;8.50;;
2850;SDS011;1433;49.976;8.342;2022-12-07T04:17:01;8.83;;;7.83;;
2850;SDS011;1433;49.976;8.342;2022-12-07T04:19:28;9.40;;;8.40;;
2850;SDS011;1433;49.976;8.342;2022-12-07T04:21:58;8.70;;;7.80;;
2850;SDS011;1433;49.976;8.342;2022-12-07T04:24:26;9.77;;;7.87;;
2850;SDS011;1433;49.976;8.342;2022-12-07T04:26:53;9.03;;;7.90;;
2850;SDS011;1433;49.976;8.342;2022-12-07T04:29:20;9.30;;;8.40;;
2850;SDS011;1433;49.976;8.342;2022-12-07T04:31:47;10.13;;;8.43;;
2850;SDS011;1433;49.976;8.342;2022-12-07T04:34:14;15.10;;;8.83;;
2850;SDS011;1433;49.976;8.342;2022-12-07T04:36:41;13.57;;;8.73;;
2850;SDS011;1433;49.976;8.342;2022-12-07T04:39:13;10.53;;;9.40;;
2850;SDS011;1433;49.976;8.342;2022-12-07T04:41:51;11.60;;;8.20;;
2850;SDS011;1433;49.976;8.342;2022-12-07T04:44:18;9.87;;;8.90;;
2850;SDS011;1433;49.976;8.342;2022-12-07T04:46:45;9.77;;;8.87;;
2850;SDS011;1433;49.976;8.342;2022-12-07T04:49:12;8.80;;;8.00;;
2850;SDS011;1433;49.976;8.342;2022-12-07T04:51:40;9.60;;;8.70;;
2850;SDS011;1433;49.976;8.342;2022-12-07T04:54:06;12.93;;;9.80;;
2850;SDS011;1433;49.976;8.342;2022-12-07T04:56:33;10.33;;;9.37;;
2850;SDS011;1433;49.976;8.342;2022-12-07T04:59:01;13.00;;;11.43;;
2850;SDS011;1433;49.976;8.342;2022-12-07T05:01:28;9.50;;;8.53;;
2850;SDS011;1433;49.976;8.342;2022-12-07T05:03:55;12.63;;;9.70;;
2850;SDS011;1433;49.976;8.342;2022-12-07T05:06:22;11.20;;;10.03;;
2850;SDS011;1433;49.976;8.342;2022-12-07T05:08:55;11.93;;;10.27;;
2850;SDS011;1433;49.976;8.342;2022-12-07T05:11:22;10.13;;;8.93;;
2850;SDS011;1433;49.976;8.342;2022-12-07T05:14:04;11.77;;;10.53;;
2850;SDS011;1433;49.976;8.342;2022-12-07T05:16:46;13.13;;;11.00;;
2850;SDS011;1433;49.976;8.342;2022-12-07T05:19:16;11.70;;;10.03;;
2850;SDS011;1433;49.976;8.342;2022-12-07T05:21:44;11.50;;;9.07;;
2850;SDS011;1433;49.976;8.342;2022-12-07T05:24:12;10.43;;;9.07;;
2850;SDS011;1433;49.976;8.342;2022-12-07T05:26:40;10.40;;;9.10;;
2850;SDS011;1433;49.976;8.342;2022-12-07T05:29:06;11.13;;;10.00;;
2850;SDS011;1433;49.976;8.342;2022-12-07T05:31:33;11.43;;;10.27;;
2850;SDS011;1433;49.976;8.342;2022-12-07T05:33:59;13.30;;;10.60;;
2850;SDS011;1433;49.976;8.342;2022-12-07T05:36:26;11.10;;;10.00;;
2850;SDS011;1433;49.976;8.342;2022-12-07T05:38:54;12.90;;;10.00;;
2850;SDS011;1433;49.976;8.342;2022-12-07T05:41:20;11.97;;;10.73;;
2850;SDS011;1433;49.976;8.342;2022-12-07T05:44:12;10.77;;;9.70;;
2850;SDS011;1433;49.976;8.342;2022-12-07T05:46:39;11.93;;;10.73;;
2850;SDS011;1433;49.976;8.342;2022-12-07T05:49:05;19.20;;;12.57;;
2850;SDS011;1433;49.976;8.342;2022-12-07T05:51:31;11.93;;;10.83;;
2850;SDS011;1433;49.976;8.342;2022-12-07T05:53:57;11.17;;;10.07;;
2850;SDS011;1433;49.976;8.342;2022-12-07T05:56:24;12.93;;;11.10;;
2850;SDS011;1433;49.976;8.342;2022-12-07T05:58:52;11.60;;;10.50;;
2850;SDS011;1433;49.976;8.342;2022-12-07T06:01:37;10.87;;;9.70;;
2850;SDS011;1433;49.976;8.342;2022-12-07T06:04:03;12.13;;;10.83;;
2850;SDS011;1433;49.976;8.342;2022-12-07T06:06:30;10.63;;;9.57;;
2850;SDS011;1433;49.976;8.342;2022-12-07T06:08:56;12.57;;;10.90;;
2850;SDS011;1433;49.976;8.342;2022-12-07T06:11:22;10.13;;;8.83;;
2850;SDS011;1433;49.976;8.342;2022-12-07T06:14:07;10.90;;;9.80;;
2850;SDS011;1433;49.976;8.342;2022-12-07T06:16:33;12.17;;;10.40;;
2850;SDS011;1433;49.976;8.342;2022-12-07T06:18:59;11.73;;;10.53;;
2850;SDS011;1433;49.976;8.342;2022-12-07T06:21:25;11.03;;;10.03;;
2850;SDS011;1433;49.976;8.342;2022-12-07T06:23:52;11.20;;;10.10;;
2850;SDS011;1433;49.976;8.342;2022-12-07T06:26:19;16.73;;;11.10;;
2850;SDS011;1433;49.976;8.342;2022-12-07T06:28:45;14.30;;;11.80;;
2850;SDS011;1433;49.976;8.342;2022-12-07T06:31:11;12.43;;;10.93;;
2850;SDS011;1433;49.976;8.342;2022-12-07T06:33:38;12.60;;;11.30;;
2850;SDS011;1433;49.976;8.342;2022-12-07T06:36:04;12.53;;;11.10;;
2850;SDS011;1433;49.976;8.342;2022-12-07T06:38:31;21.93;;;12.53;;
2850;SDS011;1433;49.976;8.342;2022-12-07T06:40:57;14.80;;;10.90;;
2850;SDS011;1433;49.976;8.342;2022-12-07T06:43:23;14.87;;;12.20;;
2850;SDS011;1433;49.976;8.342;2022-12-07T06:45:50;15.57;;;11.30;;
2850;SDS011;1433;49.976;8.342;2022-12-07T06:48:17;13.13;;;11.50;;
2850;SDS011;1433;49.976;8.342;2022-12-07T06:50:46;14.27;;;11.83;;
2850;SDS011;1433;49.976;8.342;2022-12-07T06:53:14;12.50;;;10.40;;
2850;SDS011;1433;49.976;8.342;2022-12-07T06:55:40;13.00;;;11.60;;
2850;SDS011;1433;49.976;8.342;2022-12-07T06:58:07;15.40;;;12.20;;
2850;SDS011;1433;49.976;8.342;2022-12-07T07:00:33;17.00;;;11.67;;
2850;SDS011;1433;49.976;8.342;2022-12-07T07:03:00;13.77;;;10.97;;
2850;SDS011;1433;49.976;8.342;2022-12-07T07:05:27;17.40;;;11.93;;
2850;SDS011;1433;49.976;8.342;2022-12-07T07:07:53;17.33;;;12.23;;
2850;SDS011;1433;49.976;8.342;2022-12-07T07:10:20;15.00;;;12.20;;
2850;SDS011;1433;49.976;8.342;2022-12-07T07:12:46;16.97;;;11.80;;
2850;SDS011;1433;49.976;8.342;2022-12-07T07:15:13;16.23;;;10.90;;
2850;SDS011;1433;49.976;8.342;2022-12-07T07:17:40;16.80;;;12.60;;
2850;SDS011;1433;49.976;8.342;2022-12-07T07:20:06;15.53;;;12.60;;
2850;SDS011;1433;49.976;8.342;2022-12-07T07:22:33;12.03;;;10.63;;
2850;SDS011;1433;49.976;8.342;2022-12-07T07:24:59;23.53;;;13.00;;
2850;SDS011;1433;49.976;8.342;2022-12-07T07:27:26;14.07;;;11.87;;
2850;SDS011;1433;49.976;8.342;2022-12-07T07:29:52;16.80;;;12.30;;
2850;SDS011;1433;49.976;8.342;2022-12-07T07:32:18;14.63;;;11.43;;
2850;SDS011;1433;49.976;8.342;2022-12-07T07:34:47;17.97;;;12.10;;
2850;SDS011;1433;49.976;8.342;2022-12-07T07:37:14;15.93;;;13.00;;
2850;SDS011;1433;49.976;8.342;2022-12-07T07:39:40;13.60;;;11.63;;
2850;SDS011;1433;49.976;8.342;2022-12-07T07:42:06;14.10;;;11.70;;
2850;SDS011;1433;49.976;8.342;2022-12-07T07:44:33;14.63;;;11.90;;
2850;SDS011;1433;49.976;8.342;2022-12-07T07:47:00;16.47;;;11.80;;
2850;SDS011;1433;49.976;8.342;2022-12-07T07:49:27;14.57;;;10.77;;
2850;SDS011;1433;49.976;8.342;2022-12-07T07:51:53;13.00;;;10.93;;
2850;SDS011;1433;49.976;8.342;2022-12-07T07:54:21;17.83;;;9.70;;
2850;SDS011;1433;49.976;8.342;2022-12-07T07:56:48;15.30;;;10.67;;
2850;SDS011;1433;49.976;8.342;2022-12-07T07:59:14;11.30;;;10.20;;
2850;SDS011;1433;49.976;8.342;2022-12-07T08:01:41;19.63;;;12.63;;
2850;SDS011;1433;49.976;8.342;2022-12-07T08:04:07;14.80;;;11.00;;
2850;SDS011;1433;49.976;8.342;2022-12-07T08:06:33;18.27;;;11.63;;
2850;SDS011;1433;49.976;8.342;2022-12-07T08:09:00;16.17;;;10.90;;
2850;SDS011;1433;49.976;8.342;2022-12-07T08:11:26;24.53;;;11.77;;
2850;SDS011;1433;49.976;8.342;2022-12-07T08:13:53;24.53;;;12.13;;
2850;SDS011;1433;49.976;8.342;2022-12-07T08:16:19;18.63;;;11.57;;
2850;SDS011;1433;49.976;8.342;2022-12-07T08:18:45;16.40;;;13.03;;
2850;SDS011;1433;49.976;8.342;2022-12-07T08:21:12;27.20;;;13.07;;
2850;SDS011;1433;49.976;8.342;2022-12-07T08:23:41;25.60;;;14.60;;
2850;SDS011;1433;49.976;8.342;2022-12-07T08:26:09;22.97;;;12.30;;
2850;SDS011;1433;49.976;8.342;2022-12-07T08:28:37;18.20;;;11.13;;
2850;SDS011;1433;49.976;8.342;2022-12-07T08:31:05;21.57;;;11.50;;
2850;SDS011;1433;49.976;8.342;2022-12-07T08:33:35;21.00;;;11.50;;
2850;SDS011;1433;49.976;8.342;2022-12-07T08:36:05;28.67;;;11.30;;
2850;SDS011;1433;49.976;8.342;2022-12-07T08:38:35;25.70;;;12.33;;
2850;SDS011;1433;49.976;8.342;2022-12-07T08:41:03;32.77;;;14.23;;
2850;SDS011;1433;49.976;8.342;2022-12-07T08:43:29;33.90;;;13.50;;
2850;SDS011;1433;49.976;8.342;2022-12-07T08:46:07;29.03;;;14.53;;
2850;SDS011;1433;49.976;8.342;2022-12-07T08:48:44;22.37;;;12.83;;
2850;SDS011;1433;49.976;8.342;2022-12-07T08:51:46;22.13;;;10.97;;
2850;SDS011;1433;49.976;8.342;2022-12-07T08:54:16;16.87;;;9.30;;
2850;SDS011;1433;49.976;8.342;2022-12-07T08:56:44;22.33;;;9.20;;
2850;SDS011;1433;49.976;8.342;2022-12-07T08:59:14;17.40;;;11.30;;
2850;SDS011;1433;49.976;8.342;2022-12-07T09:01:42;16.77;;;10.40;;
2850;SDS011;1433;49.976;8.342;2022-12-07T09:04:09;27.10;;;10.97;;
2850;SDS011;1433;49.976;8.342;2022-12-07T09:06:35;10.30;;;9.10;;
2850;SDS011;1433;49.976;8.342;2022-12-07T09:09:02;11.43;;;10.17;;
2850;SDS011;1433;49.976;8.342;2022-12-07T09:11:29;9.13;;;6.97;;
2850;SDS011;1433;49.976;8.342;2022-12-07T09:13:55;10.30;;;9.20;;
2850;SDS011;1433;49.976;8.342;2022-12-07T09:16:22;7.63;;;5.80;;
2850;SDS011;1433;49.976;8.342;2022-12-07T09:18:48;7.27;;;6.67;;
2850;SDS011;1433;49.976;8.342;2022-12-07T09:21:15;10.10;;;8.47;;
2850;SDS011;1433;49.976;8.342;2022-12-07T09:23:42;10.57;;;9.33;;
2850;SDS011;1433;49.976;8.342;2022-12-07T09:26:08;11.97;;;9.93;;
2850;SDS011;1433;49.976;8.342;2022-12-07T09:28:35;11.60;;;10.50;;
2850;SDS011;1433;49.976;8.342;2022-12-07T09:31:02;11.83;;;10.43;;
2850;SDS011;1433;49.976;8.342;2022-12-07T09:33:28;9.47;;;8.47;;
2850;SDS011;1433;49.976;8.342;2022-12-07T09:35:55;11.37;;;8.93;;
2850;SDS011;1433;49.976;8.342;2022-12-07T09:38:21;11.20;;;9.70;;
2850;SDS011;1433;49.976;8.342;2022-12-07T09:40:49;9.70;;;8.70;;
2850;SDS011;1433;49.976;8.342;2022-12-07T09:43:20;10.70;;;9.60;;
2850;SDS011;1433;49.976;8.342;2022-12-07T09:45:47;10.37;;;8.33;;
2850;SDS011;1433;49.976;8.342;2022-12-07T09:48:21;9.97;;;8.60;;
2850;SDS011;1433;49.976;8.342;2022-12-07T09:51:02;10.57;;;7.80;;
2850;SDS011;1433;49.976;8.342;2022-12-07T09:53:39;6.47;;;5.93;;
2850;SDS011;1433;49.976;8.342;2022-12-07T09:56:06;7.90;;;6.60;;
2850;SDS011;1433;49.976;8.342;2022-12-07T09:58:32;8.03;;;5.90;;
2850;SDS011;1433;49.976;8.342;2022-12-07T10:01:00;6.23;;;5.63;;
2850;SDS011;1433;49.976;8.342;2022-12-07T10:03:51;9.23;;;6.03;;
2850;SDS011;1433;49.976;8.342;2022-12-07T10:06:20;7.30;;;6.60;;
2850;SDS011;1433;49.976;8.342;2022-12-07T10:08:47;10.80;;;6.50;;
2850;SDS011;1433;49.976;8.342;2022-12-07T10:11:14;7.73;;;6.93;;
2850;SDS011;1433;49.976;8.342;2022-12-07T10:21:59;6.53;;;5.90;;
2850;SDS011;1433;49.976;8.342;2022-12-07T10:24:38;5.60;;;5.10;;
2850;SDS011;1433;49.976;8.342;2022-12-07T10:27:18;6.23;;;5.63;;
2850;SDS011;1433;49.976;8.342;2022-12-07T10:29:49;11.33;;;6.90;;
2850;SDS011;1433;49.976;8.342;2022-12-07T10:38:20;15.87;;;7.97;;
2850;SDS011;1433;49.976;8.342;2022-12-07T10:40:47;14.30;;;8.00;;
2850;SDS011;1433;49.976;8.342;2022-12-07T10:45:57;10.87;;;6.23;;
2850;SDS011;1433;49.976;8.342;2022-12-07T10:57:55;4.20;;;3.90;;
2850;SDS011;1433;49.976;8.342;2022-12-07T11:00:31;12.43;;;5.50;;
2850;SDS011;1433;49.976;8.342;2022-12-07T11:06:10;6.50;;;5.80;;
2850;SDS011;1433;49.976;8.342;2022-12-07T11:11:37;5.80;;;4.20;;
2850;SDS011;1433;49.976;8.342;2022-12-07T11:14:28;4.43;;;4.03;;
2850;SDS011;1433;49.976;8.342;2022-12-07T11:17:09;4.30;;;3.90;;
2850;SDS011;1433;49.976;8.342;2022-12-07T11:20:03;3.87;;;3.50;;
2850;SDS011;1433;49.976;8.342;2022-12-07T11:25:17;8.10;;;3.60;;
2850;SDS011;1433;49.976;8.342;2022-12-07T11:30:43;4.27;;;3.87;;
2850;SDS011;1433;49.976;8.342;2022-12-07T11:33:33;3.60;;;3.27;;
2850;SDS011;1433;49.976;8.342;2022-12-07T11:36:03;8.23;;;4.20;;
2850;SDS011;1433;49.976;8.342;2022-12-07T11:39:03;4.97;;;2.83;;
2850;SDS011;1433;49.976;8.342;2022-12-07T11:41:50;5.13;;;2.97;;
2850;SDS011;1433;49.976;8.342;2022-12-07T11:44:36;4.33;;;2.70;;
2850;SDS011;1433;49.976;8.342;2022-12-07T11:50:45;6.30;;;3.43;;
2850;SDS011;1433;49.976;8.342;2022-12-07T11:53:17;3.43;;;2.73;;
2850;SDS011;1433;49.976;8.342;2022-12-07T11:55:54;5.30;;;3.33;;
2850;SDS011;1433;49.976;8.342;2022-12-07T11:58:42;4.17;;;3.20;;
2850;SDS011;1433;49.976;8.342;2022-12-07T12:01:42;6.53;;;3.57;;
2850;SDS011;1433;49.976;8.342;2022-12-07T12:04:42;4.80;;;3.60;;
2850;SDS011;1433;49.976;8.342;2022-12-07T12:06:54;3.23;;;2.67;;
2850;SDS011;1433;49.976;8.342;2022-12-07T12:09:31;5.70;;;2.93;;
2850;SDS011;1433;49.976;8.342;2022-12-07T12:21:02;2.27;;;2.07;;
2850;SDS011;1433;49.976;8.342;2022-12-07T12:24:22;5.37;;;2.93;;
2850;SDS011;1433;49.976;8.342;2022-12-07T12:26:32;2.50;;;2.30;;
2850;SDS011;1433;49.976;8.342;2022-12-07T12:29:06;5.27;;;2.83;;
2850;SDS011;1433;49.976;8.342;2022-12-07T12:31:41;4.20;;;2.37;;
2850;SDS011;1433;49.976;8.342;2022-12-07T12:36:58;4.03;;;2.60;;
2850;SDS011;1433;49.976;8.342;2022-12-07T12:39:25;3.70;;;2.40;;
2850;SDS011;1433;49.976;8.342;2022-12-07T12:41:52;4.25;;;2.22;;
2850;SDS011;1433;49.976;8.342;2022-12-07T12:47:03;8.60;;;3.13;;
2850;SDS011;1433;49.976;8.342;2022-12-07T12:49:33;6.23;;;2.97;;
2850;SDS011;1433;49.976;8.342;2022-12-07T12:57:39;5.13;;;2.67;;
2850;SDS011;1433;49.976;8.342;2022-12-07T13:05:22;6.43;;;2.80;;
2850;SDS011;1433;49.976;8.342;2022-12-07T13:07:58;7.97;;;3.63;;
2850;SDS011;1433;49.976;8.342;2022-12-07T13:10:41;3.80;;;2.60;;
2850;SDS011;1433;49.976;8.342;2022-12-07T13:15:48;2.70;;;2.50;;
2850;SDS011;1433;49.976;8.342;2022-12-07T13:18:36;3.90;;;2.50;;
2850;SDS011;1433;49.976;8.342;2022-12-07T13:31:48;8.77;;;2.57;;
2850;SDS011;1433;49.976;8.342;2022-12-07T13:39:54;4.00;;;2.20;;
2850;SDS011;1433;49.976;8.342;2022-12-07T13:42:24;8.73;;;2.57;;
2850;SDS011;1433;49.976;8.342;2022-12-07T13:44:57;4.93;;;2.30;;
2850;SDS011;1433;49.976;8.342;2022-12-07T13:52:57;12.23;;;2.67;;
2850;SDS011;1433;49.976;8.342;2022-12-07T13:55:26;4.73;;;2.30;;
2850;SDS011;1433;49.976;8.342;2022-12-07T13:57:54;2.70;;;2.50;;
2850;SDS011;1433;49.976;8.342;2022-12-07T14:00:24;3.57;;;3.10;;
2850;SDS011;1433;49.976;8.342;2022-12-07T14:05:29;3.60;;;3.00;;
2850;SDS011;1433;49.976;8.342;2022-12-07T14:10:30;7.47;;;4.17;;
2850;SDS011;1433;49.976;8.342;2022-12-07T14:13:31;5.70;;;2.97;;
2850;SDS011;1433;49.976;8.342;2022-12-07T14:16:29;8.23;;;3.13;;
2850;SDS011;1433;49.976;8.342;2022-12-07T14:19:01;3.50;;;2.73;;
2850;SDS011;1433;49.976;8.342;2022-12-07T14:21:31;7.50;;;3.93;;
2850;SDS011;1433;49.976;8.342;2022-12-07T14:26:45;4.33;;;3.00;;
2850;SDS011;1433;49.976;8.342;2022-12-07T14:29:27;5.03;;;3.53;;
2850;SDS011;1433;49.976;8.342;2022-12-07T14:32:17;4.40;;;2.90;;
2850;SDS011;1433;49.976;8.342;2022-12-07T14:34:53;6.40;;;3.20;;
2850;SDS011;1433;49.976;8.342;2022-12-07T14:37:26;6.50;;;5.63;;
2850;SDS011;1433;49.976;8.342;2022-12-07T14:39:54;3.90;;;3.60;;
2850;SDS011;1433;49.976;8.342;2022-12-07T14:42:21;7.13;;;3.20;;
2850;SDS011;1433;49.976;8.342;2022-12-07T14:44:52;4.60;;;3.60;;
2850;SDS011;1433;49.976;8.342;2022-12-07T14:47:18;4.70;;;2.73;;
2850;SDS011;1433;49.976;8.342;2022-12-07T14:49:44;8.30;;;3.80;;
2850;SDS011;1433;49.976;8.342;2022-12-07T14:52:13;5.20;;;3.10;;
2850;SDS011;1433;49.976;8.342;2022-12-07T14:54:42;13.10;;;3.53;;
2850;SDS011;1433;49.976;8.342;2022-12-07T14:57:09;6.47;;;3.50;;
2850;SDS011;1433;49.976;8.342;2022-12-07T14:59:37;4.13;;;3.07;;
2850;SDS011;1433;49.976;8.342;2022-12-07T15:02:04;4.50;;;3.83;;
2850;SDS011;1433;49.976;8.342;2022-12-07T15:04:31;5.07;;;3.20;;
2850;SDS011;1433;49.976;8.342;2022-12-07T15:06:59;3.40;;;3.10;;
2850;SDS011;1433;49.976;8.342;2022-12-07T15:09:28;4.67;;;3.33;;
2850;SDS011;1433;49.976;8.342;2022-12-07T15:11:54;4.17;;;3.20;;
2850;SDS011;1433;49.976;8.342;2022-12-07T15:14:21;7.53;;;2.73;;
2850;SDS011;1433;49.976;8.342;2022-12-07T15:16:48;12.63;;;3.23;;
2850;SDS011;1433;49.976;8.342;2022-12-07T15:19:16;8.57;;;3.37;;
2850;SDS011;1433;49.976;8.342;2022-12-07T15:21:51;8.73;;;3.30;;
2850;SDS011;1433;49.976;8.342;2022-12-07T15:24:19;10.97;;;3.80;;
2850;SDS011;1433;49.976;8.342;2022-12-07T15:26:45;18.43;;;4.20;;
2850;SDS011;1433;49.976;8.342;2022-12-07T15:29:12;14.03;;;4.20;;
2850;SDS011;1433;49.976;8.342;2022-12-07T15:31:40;6.83;;;3.50;;
2850;SDS011;1433;49.976;8.342;2022-12-07T15:34:06;4.13;;;3.33;;
2850;SDS011;1433;49.976;8.342;2022-12-07T15:36:33;5.50;;;2.90;;
2850;SDS011;1433;49.976;8.342;2022-12-07T15:39:00;3.57;;;2.00;;
2850;SDS011;1433;49.976;8.342;2022-12-07T15:41:27;1.80;;;1.70;;
2850;SDS011;1433;49.976;8.342;2022-12-07T15:43:54;7.00;;;3.20;;
2850;SDS011;1433;49.976;8.342;2022-12-07T15:46:39;4.00;;;3.10;;
2850;SDS011;1433;49.976;8.342;2022-12-07T15:49:15;6.40;;;3.30;;
2850;SDS011;1433;49.976;8.342;2022-12-07T15:51:44;8.20;;;3.00;;
2850;SDS011;1433;49.976;8.342;2022-12-07T15:54:16;3.23;;;2.93;;
2850;SDS011;1433;49.976;8.342;2022-12-07T15:56:45;1.93;;;1.83;;
2850;SDS011;1433;49.976;8.342;2022-12-07T15:59:11;7.50;;;2.77;;
2850;SDS011;1433;49.976;8.342;2022-12-07T16:01:38;4.97;;;2.83;;
2850;SDS011;1433;49.976;8.342;2022-12-07T16:04:05;2.40;;;2.03;;
2850;SDS011;1433;49.976;8.342;2022-12-07T16:06:31;4.40;;;3.50;;
2850;SDS011;1433;49.976;8.342;2022-12-07T16:08:57;6.43;;;3.00;;
2850;SDS011;1433;49.976;8.342;2022-12-07T16:11:24;2.97;;;2.67;;
2850;SDS011;1433;49.976;8.342;2022-12-07T16:13:50;5.90;;;3.43;;
2850;SDS011;1433;49.976;8.342;2022-12-07T16:16:17;4.60;;;3.13;;
2850;SDS011;1433;49.976;8.342;2022-12-07T16:18:45;7.77;;;2.90;;
2850;SDS011;1433;49.976;8.342;2022-12-07T16:21:13;5.27;;;3.50;;
2850;SDS011;1433;49.976;8.342;2022-12-07T16:23:40;7.83;;;5.10;;
2850;SDS011;1433;49.976;8.342;2022-12-07T16:26:10;10.00;;;4.77;;
2850;SDS011;1433;49.976;8.342;2022-12-07T16:28:42;9.33;;;4.70;;
2850;SDS011;1433;49.976;8.342;2022-12-07T16:31:13;16.53;;;5.90;;
2850;SDS011;1433;49.976;8.342;2022-12-07T16:33:42;7.13;;;4.13;;
2850;SDS011;1433;49.976;8.342;2022-12-07T16:36:10;8.73;;;5.33;;
2850;SDS011;1433;49.976;8.342;2022-12-07T16:38:39;13.53;;;6.90;;
2850;SDS011;1433;49.976;8.342;2022-12-07T16:41:05;8.47;;;5.07;;
2850;SDS011;1433;49.976;8.342;2022-12-07T16:43:32;14.60;;;5.70;;
2850;SDS011;1433;49.976;8.342;2022-12-07T16:45:59;9.73;;;6.23;;
2850;SDS011;1433;49.976;8.342;2022-12-07T16:48:27;8.53;;;6.30;;
2850;SDS011;1433;49.976;8.342;2022-12-07T16:50:53;7.73;;;5.13;;
2850;SDS011;1433;49.976;8.342;2022-12-07T16:53:20;9.23;;;4.87;;
2850;SDS011;1433;49.976;8.342;2022-12-07T16:55:48;5.53;;;5.00;;
2850;SDS011;1433;49.976;8.342;2022-12-07T16:58:15;6.03;;;5.40;;
2850;SDS011;1433;49.976;8.342;2022-12-07T17:00:44;8.90;;;4.73;;
2850;SDS011;1433;49.976;8.342;2022-12-07T17:03:12;7.00;;;5.00;;
2850;SDS011;1433;49.976;8.342;2022-12-07T17:05:39;10.03;;;6.03;;
2850;SDS011;1433;49.976;8.342;2022-12-07T17:08:08;9.33;;;6.10;;
2850;SDS011;1433;49.976;8.342;2022-12-07T17:10:38;7.50;;;6.50;;
2850;SDS011;1433;49.976;8.342;2022-12-07T17:13:07;7.07;;;6.37;;
2850;SDS011;1433;49.976;8.342;2022-12-07T17:15:57;6.63;;;5.57;;
2850;SDS011;1433;49.976;8.342;2022-12-07T17:18:34;6.20;;;5.57;;
2850;SDS011;1433;49.976;8.342;2022-12-07T17:21:02;5.63;;;4.40;;
2850;SDS011;1433;49.976;8.342;2022-12-07T17:23:34;4.13;;;3.67;;
2850;SDS011;1433;49.976;8.342;2022-12-07T17:26:09;5.83;;;3.60;;
2850;SDS011;1433;49.976;8.342;2022-12-07T17:28:40;6.07;;;5.07;;
2850;SDS011;1433;49.976;8.342;2022-12-07T17:31:07;5.47;;;4.97;;
2850;SDS011;1433;49.976;8.342;2022-12-07T17:33:37;8.63;;;4.60;;
2850;SDS011;1433;49.976;8.342;2022-12-07T17:36:18;8.70;;;5.87;;
2850;SDS011;1433;49.976;8.342;2022-12-07T17:38:49;6.40;;;5.80;;
2850;SDS011;1433;49.976;8.342;2022-12-07T17:41:17;8.27;;;6.70;;
2850;SDS011;1433;49.976;8.342;2022-12-07T17:44:06;8.77;;;6.83;;
2850;SDS011;1433;49.976;8.342;2022-12-07T17:46:36;6.50;;;5.90;;